KPOE/POE METAR and TAF weather

Enter ICAO airport designator
Station Type Date Time Source
KPOE METAR 2018/12/18 18:58 UTC NOAA

KPOE 181858Z AUTO 00000KT 10SM SCT280 14/09 A3010 RMK AO2 SLP195 T01350093


Station Type Date Time Source
KPOE Decoded METAR 2018/12/18 18:58 UTC NOAA

Fort Polk, Polk AAF Ft Polk, LA, United States (KPOE) 31-03N 093-11-38W
Dec 18, 2018 - 01:58 PM EST / 2018.12.18 1858 UTC
Wind: Calm:0
Visibility: 10 mile(s):0
Sky conditions: partly cloudy
Temperature: 56.3 F (13.5 C)
Dew Point: 48.7 F (9.3 C)
Relative Humidity: 75%
Pressure (altimeter): 30.1 in. Hg (1019 hPa)
ob: KPOE 181858Z AUTO 00000KT 10SM SCT280 14/09 A3010 RMK AO2 SLP195 T01350093
cycle: 19

Station Type Date Time Source
KPOE TAF 2018/12/18 18:15 UTC NOAA

TAF
AMD KPOE 181808Z 1818/1922 14006KT 9999 SCT020 QNH3000INS
BECMG 1902/1903 12006KT 3200 BR OVC002 QNH2997INS
TEMPO 1906/1913 0800 FG VV001
BECMG 1915/1916 03006KT 4800 -SHRA BR OVC005 QNH2981INS
BECMG 1919/1920 34006KT 6000 BR OVC010 QNH2981INS TX18/1820Z TN08/1909Z


Example: see airport list